Captain Koulis — SV5456 — position and weather

sailwx.info

Track history (hours):
 
Tides and Currents Weather Stations Pressure Air Temp Water Temp Dewpoint Dewpoint Depression Visibility Wind Speed Wind Dir Waves Ship Positions

Captain Koulis

Last reported at 2015-Oct-26 08:21 UTC. Time now 2016-Feb-07 14:53 UTC.
Position N 36°25' E 025°26'.
Warning: this ship's position is months out of date.

Type: Passenger vessel. MMSI: 239173800.

Date/timePositionNaut miles runAvg speedWind from/ knotsBaromVisibWave heightAir tempDewpointWater temp
2015-Oct-26 08:21N 36°25' E 025°26'0 0.1
2015-Oct-26 07:33N 36°25' E 025°25'0 0.5
2015-Oct-26 06:32N 36°25' E 025°25'1 0.7
2015-Oct-26 05:33N 36°25' E 025°26'1 0.1
2015-Oct-25 18:33N 36°24' E 025°25'1 1.2
2015-Oct-25 17:32N 36°25' E 025°26'1 1.4
2015-Oct-25 16:32N 36°24' E 025°24'0 0.5
2015-Oct-25 15:32N 36°24' E 025°25'0 0.3
2015-Oct-25 14:32N 36°24' E 025°25'1 1.4
2015-Oct-25 13:31N 36°25' E 025°25'0 0.3
2015-Oct-25 12:32N 36°25' E 025°25'0 0.1
2015-Oct-25 11:33N 36°25' E 025°25'0 0.2
2015-Oct-25 10:33N 36°25' E 025°26'1 1.3
2015-Oct-25 09:33N 36°24' E 025°24'1 0.7
2015-Oct-25 08:33N 36°25' E 025°25'0 0.1
2015-Oct-25 07:32N 36°25' E 025°25'0 0.1
2015-Oct-25 06:33N 36°25' E 025°25'0 0.1
2015-Oct-25 05:34N 36°25' E 025°25'  
2015-Oct-22 16:32N 36°25' E 025°25'0 0.5
2015-Oct-22 15:33N 36°25' E 025°26'4 0.5
2015-Oct-22 08:24N 36°28' E 025°22'4 4.3
2015-Oct-22 07:33N 36°25' E 025°26'4 3.7
2015-Oct-22 06:33N 36°27' E 025°22'4 3.6
2015-Oct-22 05:33N 36°25' E 025°26'2 1.6
2015-Oct-22 04:33N 36°25' E 025°24'1 0.1
2015-Oct-21 14:32N 36°25' E 025°26'0 0.0
2015-Oct-21 13:33N 36°25' E 025°26'0 0.0
2015-Oct-21 12:32N 36°25' E 025°26'0 0.5
2015-Oct-21 11:32N 36°25' E 025°25'0 0.1
2015-Oct-21 10:33N 36°25' E 025°25'0 0.1
2015-Oct-21 09:33N 36°25' E 025°25'0 0.4
2015-Oct-21 08:32N 36°25' E 025°26'0 0.1
2015-Oct-21 07:32N 36°25' E 025°26'0 0.0
2015-Oct-21 06:32N 36°25' E 025°26'1 0.6
2015-Oct-21 05:33N 36°25' E 025°25'1 0.5
2015-Oct-21 04:33N 36°25' E 025°26'0 0.0
2015-Oct-20 11:14N 36°25' E 025°26'1 0.7
2015-Oct-20 10:30N 36°25' E 025°25'1 0.6
2015-Oct-20 09:33N 36°25' E 025°26'0 0.0
2015-Oct-20 08:33N 36°25' E 025°26'0 0.3
2015-Oct-20 07:33N 36°25' E 025°25'1 0.6
2015-Oct-20 06:32N 36°25' E 025°25'1 0.8
2015-Oct-20 05:33N 36°25' E 025°26'0 0.0
2015-Oct-20 04:33N 36°25' E 025°26'2 0.1
2015-Oct-19 10:33N 36°23' E 025°26'1 0.7
2015-Oct-19 09:32N 36°24' E 025°26'2 1.6
2015-Oct-19 08:33N 36°25' E 025°24'1 1.2
2015-Oct-19 07:32N 36°25' E 025°26'1 1.3
2015-Oct-19 06:33N 36°25' E 025°24'0 0.0
2015-Oct-19 05:33N 36°25' E 025°24'2 2.0
2015-Oct-19 04:33N 36°23' E 025°26'1 0.1
2015-Oct-18 17:13N 36°24' E 025°24'1 1.9
2015-Oct-18 16:32N 36°25' E 025°26'0 0.0
2015-Oct-18 15:33N 36°25' E 025°26'4 3.8
2015-Oct-18 14:33N 36°28' E 025°22'4 3.7
2015-Oct-18 13:33N 36°25' E 025°25'1 0.8
2015-Oct-18 12:32N 36°24' E 025°24'0 0.0
2015-Oct-18 11:33N 36°24' E 025°24'0 0.0
2015-Oct-18 09:03N 36°24' E 025°24'0 0.0
2015-Oct-18 08:33N 36°24' E 025°24'1 0.1
2015-Oct-17 13:32N 36°25' E 025°26'0 0.0
2015-Oct-17 12:32N 36°25' E 025°26'0 0.2
2015-Oct-17 11:31N 36°25' E 025°26'0 0.0
2015-Oct-17 10:33N 36°25' E 025°26'0 0.0
2015-Oct-17 09:32N 36°25' E 025°26'4 3.8
2015-Oct-17 08:33N 36°28' E 025°22'4 3.7
2015-Oct-17 07:33N 36°25' E 025°25'0 0.2
2015-Oct-17 06:33N 36°25' E 025°25'2 1.6
2015-Oct-17 05:32N 36°23' E 025°26'2 1.9
2015-Oct-17 04:32N 36°25' E 025°25'  
Track history (hours):
 
Tides and Currents Weather Stations Pressure Air Temp Water Temp Dewpoint Dewpoint Depression Visibility Wind Speed Wind Dir Waves Ship Positions

Captain Koulis

Last reported at 2015-Oct-26 08:21 UTC. Time now 2016-Feb-07 14:53 UTC.
Position N 36°25' E 025°26'.
Warning: this ship's position is months out of date.

Type: Passenger vessel. MMSI: 239173800.

Date/timePositionNaut miles runAvg speedWind from/ knotsBaromVisibWave heightAir tempDewpointWater temp
2015-Oct-26 08:21N 36°25' E 025°26'0 0.1
2015-Oct-26 07:33N 36°25' E 025°25'0 0.5
2015-Oct-26 06:32N 36°25' E 025°25'1 0.7
2015-Oct-26 05:33N 36°25' E 025°26'1 0.1
2015-Oct-25 18:33N 36°24' E 025°25'1 1.2
2015-Oct-25 17:32N 36°25' E 025°26'1 1.4
2015-Oct-25 16:32N 36°24' E 025°24'0 0.5
2015-Oct-25 15:32N 36°24' E 025°25'0 0.3
2015-Oct-25 14:32N 36°24' E 025°25'1 1.4
2015-Oct-25 13:31N 36°25' E 025°25'0 0.3
2015-Oct-25 12:32N 36°25' E 025°25'0 0.1
2015-Oct-25 11:33N 36°25' E 025°25'0 0.2
2015-Oct-25 10:33N 36°25' E 025°26'1 1.3
2015-Oct-25 09:33N 36°24' E 025°24'1 0.7
2015-Oct-25 08:33N 36°25' E 025°25'0 0.1
2015-Oct-25 07:32N 36°25' E 025°25'0 0.1
2015-Oct-25 06:33N 36°25' E 025°25'0 0.1
2015-Oct-25 05:34N 36°25' E 025°25'  
2015-Oct-22 16:32N 36°25' E 025°25'0 0.5
2015-Oct-22 15:33N 36°25' E 025°26'4 0.5
2015-Oct-22 08:24N 36°28' E 025°22'4 4.3
2015-Oct-22 07:33N 36°25' E 025°26'4 3.7
2015-Oct-22 06:33N 36°27' E 025°22'4 3.6
2015-Oct-22 05:33N 36°25' E 025°26'2 1.6
2015-Oct-22 04:33N 36°25' E 025°24'1 0.1
2015-Oct-21 14:32N 36°25' E 025°26'0 0.0
2015-Oct-21 13:33N 36°25' E 025°26'0 0.0
2015-Oct-21 12:32N 36°25' E 025°26'0 0.5
2015-Oct-21 11:32N 36°25' E 025°25'0 0.1
2015-Oct-21 10:33N 36°25' E 025°25'0 0.1
2015-Oct-21 09:33N 36°25' E 025°25'0 0.4
2015-Oct-21 08:32N 36°25' E 025°26'0 0.1
2015-Oct-21 07:32N 36°25' E 025°26'0 0.0
2015-Oct-21 06:32N 36°25' E 025°26'1 0.6
2015-Oct-21 05:33N 36°25' E 025°25'1 0.5
2015-Oct-21 04:33N 36°25' E 025°26'0 0.0
2015-Oct-20 11:14N 36°25' E 025°26'1 0.7
2015-Oct-20 10:30N 36°25' E 025°25'1 0.6
2015-Oct-20 09:33N 36°25' E 025°26'0 0.0
2015-Oct-20 08:33N 36°25' E 025°26'0 0.3
2015-Oct-20 07:33N 36°25' E 025°25'1 0.6
2015-Oct-20 06:32N 36°25' E 025°25'1 0.8
2015-Oct-20 05:33N 36°25' E 025°26'0 0.0
2015-Oct-20 04:33N 36°25' E 025°26'2 0.1
2015-Oct-19 10:33N 36°23' E 025°26'1 0.7
2015-Oct-19 09:32N 36°24' E 025°26'2 1.6
2015-Oct-19 08:33N 36°25' E 025°24'1 1.2
2015-Oct-19 07:32N 36°25' E 025°26'1 1.3
2015-Oct-19 06:33N 36°25' E 025°24'0 0.0
2015-Oct-19 05:33N 36°25' E 025°24'2 2.0
2015-Oct-19 04:33N 36°23' E 025°26'1 0.1
2015-Oct-18 17:13N 36°24' E 025°24'1 1.9
2015-Oct-18 16:32N 36°25' E 025°26'0 0.0
2015-Oct-18 15:33N 36°25' E 025°26'4 3.8
2015-Oct-18 14:33N 36°28' E 025°22'4 3.7
2015-Oct-18 13:33N 36°25' E 025°25'1 0.8
2015-Oct-18 12:32N 36°24' E 025°24'0 0.0
2015-Oct-18 11:33N 36°24' E 025°24'0 0.0
2015-Oct-18 09:03N 36°24' E 025°24'0 0.0
2015-Oct-18 08:33N 36°24' E 025°24'1 0.1
2015-Oct-17 13:32N 36°25' E 025°26'0 0.0
2015-Oct-17 12:32N 36°25' E 025°26'0 0.2
2015-Oct-17 11:31N 36°25' E 025°26'0 0.0
2015-Oct-17 10:33N 36°25' E 025°26'0 0.0
2015-Oct-17 09:32N 36°25' E 025°26'4 3.8
2015-Oct-17 08:33N 36°28' E 025°22'4 3.7
2015-Oct-17 07:33N 36°25' E 025°25'0 0.2
2015-Oct-17 06:33N 36°25' E 025°25'2 1.6
2015-Oct-17 05:32N 36°23' E 025°26'2 1.9
2015-Oct-17 04:32N 36°25' E 025°25'  

Dump ship's entire track history